sensor_id;sensor_type;location;lat;lon;timestamp;P1;durP1;ratioP1;P2;durP2;ratioP2
60430;SDS011;46285;45.122;20.726;2023-03-31T00:08:24;22.05;;;14.50;;
60430;SDS011;46285;45.122;20.726;2023-03-31T00:18:26;24.30;;;16.38;;
60430;SDS011;46285;45.122;20.726;2023-03-31T00:28:27;22.58;;;15.02;;
60430;SDS011;46285;45.122;20.726;2023-03-31T00:38:28;20.42;;;13.55;;
60430;SDS011;46285;45.122;20.726;2023-03-31T00:48:29;19.85;;;14.02;;
60430;SDS011;46285;45.122;20.726;2023-03-31T00:58:31;25.60;;;16.55;;
60430;SDS011;46285;45.122;20.726;2023-03-31T01:08:32;20.13;;;14.32;;
60430;SDS011;46285;45.122;20.726;2023-03-31T01:18:33;15.95;;;7.93;;
60430;SDS011;46285;45.122;20.726;2023-03-31T01:48:58;9.35;;;3.75;;
60430;SDS011;46285;45.122;20.726;2023-03-31T02:09:14;12.65;;;4.00;;
60430;SDS011;46285;45.122;20.726;2023-03-31T02:19:16;11.15;;;4.40;;
60430;SDS011;46285;45.122;20.726;2023-03-31T02:29:18;6.88;;;2.72;;
60430;SDS011;46285;45.122;20.726;2023-03-31T02:39:27;6.68;;;2.45;;
60430;SDS011;46285;45.122;20.726;2023-03-31T02:49:29;11.32;;;5.30;;
60430;SDS011;46285;45.122;20.726;2023-03-31T03:09:57;8.50;;;3.22;;
60430;SDS011;46285;45.122;20.726;2023-03-31T03:20:01;12.68;;;7.15;;
60430;SDS011;46285;45.122;20.726;2023-03-31T03:30:02;8.32;;;3.83;;
60430;SDS011;46285;45.122;20.726;2023-03-31T03:40:04;8.50;;;3.17;;
60430;SDS011;46285;45.122;20.726;2023-03-31T03:50:05;12.43;;;5.82;;
60430;SDS011;46285;45.122;20.726;2023-03-31T04:00:07;24.92;;;19.13;;
60430;SDS011;46285;45.122;20.726;2023-03-31T04:10:11;18.10;;;9.93;;
60430;SDS011;46285;45.122;20.726;2023-03-31T04:20:12;16.75;;;8.05;;
60430;SDS011;46285;45.122;20.726;2023-03-31T04:30:14;10.57;;;5.43;;
60430;SDS011;46285;45.122;20.726;2023-03-31T04:40:15;17.13;;;8.98;;
60430;SDS011;46285;45.122;20.726;2023-03-31T04:50:16;22.05;;;12.40;;
60430;SDS011;46285;45.122;20.726;2023-03-31T05:00:18;29.60;;;14.77;;
60430;SDS011;46285;45.122;20.726;2023-03-31T05:10:19;17.90;;;11.55;;
60430;SDS011;46285;45.122;20.726;2023-03-31T05:20:20;28.95;;;16.30;;
60430;SDS011;46285;45.122;20.726;2023-03-31T05:30:21;33.67;;;21.98;;
60430;SDS011;46285;45.122;20.726;2023-03-31T05:40:23;18.75;;;9.80;;
60430;SDS011;46285;45.122;20.726;2023-03-31T05:50:24;17.45;;;10.35;;
60430;SDS011;46285;45.122;20.726;2023-03-31T06:00:25;15.32;;;8.57;;
60430;SDS011;46285;45.122;20.726;2023-03-31T06:10:26;23.58;;;14.85;;
60430;SDS011;46285;45.122;20.726;2023-03-31T06:20:27;26.48;;;15.40;;
60430;SDS011;46285;45.122;20.726;2023-03-31T06:30:28;27.30;;;15.68;;
60430;SDS011;46285;45.122;20.726;2023-03-31T06:40:29;16.73;;;11.88;;
60430;SDS011;46285;45.122;20.726;2023-03-31T06:50:30;18.27;;;10.30;;
60430;SDS011;46285;45.122;20.726;2023-03-31T07:00:32;14.05;;;8.18;;
60430;SDS011;46285;45.122;20.726;2023-03-31T07:10:33;14.25;;;5.38;;
60430;SDS011;46285;45.122;20.726;2023-03-31T07:20:35;8.95;;;4.03;;
60430;SDS011;46285;45.122;20.726;2023-03-31T07:30:36;14.23;;;5.03;;
60430;SDS011;46285;45.122;20.726;2023-03-31T07:40:37;20.95;;;8.55;;
60430;SDS011;46285;45.122;20.726;2023-03-31T07:50:39;22.65;;;10.80;;
60430;SDS011;46285;45.122;20.726;2023-03-31T08:00:47;16.63;;;6.85;;
60430;SDS011;46285;45.122;20.726;2023-03-31T08:10:49;12.05;;;6.20;;
60430;SDS011;46285;45.122;20.726;2023-03-31T08:20:50;14.07;;;6.80;;
60430;SDS011;46285;45.122;20.726;2023-03-31T08:30:51;9.55;;;4.60;;
60430;SDS011;46285;45.122;20.726;2023-03-31T08:40:57;11.93;;;5.65;;
60430;SDS011;46285;45.122;20.726;2023-03-31T08:51:00;13.68;;;5.65;;
60430;SDS011;46285;45.122;20.726;2023-03-31T09:11:12;10.68;;;5.90;;
60430;SDS011;46285;45.122;20.726;2023-03-31T09:21:27;7.50;;;3.47;;
60430;SDS011;46285;45.122;20.726;2023-03-31T09:31:29;11.82;;;6.30;;
60430;SDS011;46285;45.122;20.726;2023-03-31T09:41:31;19.70;;;9.43;;
60430;SDS011;46285;45.122;20.726;2023-03-31T09:51:33;16.48;;;8.05;;
60430;SDS011;46285;45.122;20.726;2023-03-31T10:01:34;7.78;;;2.97;;
60430;SDS011;46285;45.122;20.726;2023-03-31T10:11:36;9.75;;;3.72;;
60430;SDS011;46285;45.122;20.726;2023-03-31T10:21:37;8.60;;;2.58;;
60430;SDS011;46285;45.122;20.726;2023-03-31T10:31:39;7.05;;;2.20;;
60430;SDS011;46285;45.122;20.726;2023-03-31T10:41:41;9.57;;;2.75;;
60430;SDS011;46285;45.122;20.726;2023-03-31T10:52:10;6.68;;;2.80;;
60430;SDS011;46285;45.122;20.726;2023-03-31T11:12:15;6.65;;;2.17;;
60430;SDS011;46285;45.122;20.726;2023-03-31T11:42:35;14.60;;;3.72;;
60430;SDS011;46285;45.122;20.726;2023-03-31T11:52:42;6.38;;;2.05;;
60430;SDS011;46285;45.122;20.726;2023-03-31T12:02:49;6.38;;;2.20;;
60430;SDS011;46285;45.122;20.726;2023-03-31T12:12:54;6.53;;;1.90;;
60430;SDS011;46285;45.122;20.726;2023-03-31T12:22:58;9.38;;;2.28;;
60430;SDS011;46285;45.122;20.726;2023-03-31T12:33:01;9.18;;;2.30;;
60430;SDS011;46285;45.122;20.726;2023-03-31T13:13:34;8.82;;;3.08;;
60430;SDS011;46285;45.122;20.726;2023-03-31T13:23:35;8.93;;;2.85;;
60430;SDS011;46285;45.122;20.726;2023-03-31T14:13:59;8.45;;;3.05;;
60430;SDS011;46285;45.122;20.726;2023-03-31T14:24:04;10.98;;;2.67;;
60430;SDS011;46285;45.122;20.726;2023-03-31T14:44:28;9.38;;;3.80;;
60430;SDS011;46285;45.122;20.726;2023-03-31T14:54:32;13.95;;;6.70;;
60430;SDS011;46285;45.122;20.726;2023-03-31T15:04:38;9.32;;;3.30;;
60430;SDS011;46285;45.122;20.726;2023-03-31T15:14:44;11.38;;;3.28;;
60430;SDS011;46285;45.122;20.726;2023-03-31T15:24:46;9.70;;;5.15;;
60430;SDS011;46285;45.122;20.726;2023-03-31T15:34:49;16.67;;;8.27;;
60430;SDS011;46285;45.122;20.726;2023-03-31T15:44:54;11.65;;;5.63;;
60430;SDS011;46285;45.122;20.726;2023-03-31T15:54:56;14.00;;;6.38;;
60430;SDS011;46285;45.122;20.726;2023-03-31T16:04:57;12.50;;;6.97;;
60430;SDS011;46285;45.122;20.726;2023-03-31T16:15:10;20.95;;;11.30;;
60430;SDS011;46285;45.122;20.726;2023-03-31T16:25:17;24.80;;;15.05;;
60430;SDS011;46285;45.122;20.726;2023-03-31T16:35:19;52.28;;;33.72;;
60430;SDS011;46285;45.122;20.726;2023-03-31T16:45:20;61.60;;;40.83;;
60430;SDS011;46285;45.122;20.726;2023-03-31T16:55:24;48.92;;;31.50;;
60430;SDS011;46285;45.122;20.726;2023-03-31T17:05:27;57.63;;;42.63;;
60430;SDS011;46285;45.122;20.726;2023-03-31T17:15:29;151.85;;;103.88;;
60430;SDS011;46285;45.122;20.726;2023-03-31T17:25:30;103.88;;;72.65;;
60430;SDS011;46285;45.122;20.726;2023-03-31T17:35:32;129.40;;;87.30;;
60430;SDS011;46285;45.122;20.726;2023-03-31T17:45:33;137.48;;;91.55;;
60430;SDS011;46285;45.122;20.726;2023-03-31T17:55:35;185.18;;;115.32;;
60430;SDS011;46285;45.122;20.726;2023-03-31T18:05:36;228.15;;;142.65;;
60430;SDS011;46285;45.122;20.726;2023-03-31T18:15:37;98.00;;;67.30;;
60430;SDS011;46285;45.122;20.726;2023-03-31T18:25:41;69.30;;;39.92;;
60430;SDS011;46285;45.122;20.726;2023-03-31T18:35:42;37.05;;;25.33;;
60430;SDS011;46285;45.122;20.726;2023-03-31T18:45:47;38.50;;;24.90;;
60430;SDS011;46285;45.122;20.726;2023-03-31T18:55:49;28.75;;;20.05;;
60430;SDS011;46285;45.122;20.726;2023-03-31T19:05:52;25.50;;;14.93;;
60430;SDS011;46285;45.122;20.726;2023-03-31T19:15:59;32.60;;;19.15;;
60430;SDS011;46285;45.122;20.726;2023-03-31T19:26:00;27.23;;;16.10;;
60430;SDS011;46285;45.122;20.726;2023-03-31T19:36:01;31.77;;;20.13;;
60430;SDS011;46285;45.122;20.726;2023-03-31T19:46:02;25.52;;;14.93;;
60430;SDS011;46285;45.122;20.726;2023-03-31T19:56:05;29.67;;;20.08;;
60430;SDS011;46285;45.122;20.726;2023-03-31T20:06:07;30.27;;;18.23;;
60430;SDS011;46285;45.122;20.726;2023-03-31T20:16:10;26.02;;;15.85;;
60430;SDS011;46285;45.122;20.726;2023-03-31T20:26:13;52.30;;;33.95;;
60430;SDS011;46285;45.122;20.726;2023-03-31T20:36:16;43.15;;;27.08;;
60430;SDS011;46285;45.122;20.726;2023-03-31T20:46:17;61.22;;;37.05;;
60430;SDS011;46285;45.122;20.726;2023-03-31T20:56:19;99.43;;;55.70;;
60430;SDS011;46285;45.122;20.726;2023-03-31T21:06:21;71.35;;;44.95;;
60430;SDS011;46285;45.122;20.726;2023-03-31T21:16:22;63.20;;;39.83;;
60430;SDS011;46285;45.122;20.726;2023-03-31T21:26:23;76.55;;;43.30;;
60430;SDS011;46285;45.122;20.726;2023-03-31T21:36:25;20.60;;;10.77;;
60430;SDS011;46285;45.122;20.726;2023-03-31T21:46:27;15.82;;;7.88;;
60430;SDS011;46285;45.122;20.726;2023-03-31T21:56:28;17.70;;;11.07;;
60430;SDS011;46285;45.122;20.726;2023-03-31T22:06:29;14.57;;;7.88;;
60430;SDS011;46285;45.122;20.726;2023-03-31T22:16:31;14.10;;;5.45;;
60430;SDS011;46285;45.122;20.726;2023-03-31T22:26:32;27.80;;;13.00;;
60430;SDS011;46285;45.122;20.726;2023-03-31T22:36:33;20.88;;;9.02;;
60430;SDS011;46285;45.122;20.726;2023-03-31T22:46:35;17.73;;;9.60;;
60430;SDS011;46285;45.122;20.726;2023-03-31T22:56:36;13.50;;;5.22;;
60430;SDS011;46285;45.122;20.726;2023-03-31T23:06:37;15.18;;;6.10;;
60430;SDS011;46285;45.122;20.726;2023-03-31T23:16:38;13.73;;;5.15;;
60430;SDS011;46285;45.122;20.726;2023-03-31T23:26:40;31.17;;;9.23;;
60430;SDS011;46285;45.122;20.726;2023-03-31T23:36:41;15.68;;;6.63;;
60430;SDS011;46285;45.122;20.726;2023-03-31T23:46:42;13.68;;;5.20;;
60430;SDS011;46285;45.122;20.726;2023-03-31T23:56:43;13.48;;;6.25;;
